createdAt,value
2018-04-27T00:00:34.120Z,99564.81
2018-04-27T00:06:38.613Z,99557.23
2018-04-27T00:12:43.033Z,99554.92
2018-04-27T00:18:47.413Z,99550.02
2018-04-27T00:24:51.815Z,99541.84
2018-04-27T00:30:56.934Z,99536.14
2018-04-27T00:37:01.348Z,99534.66
2018-04-27T00:43:05.842Z,99534.08
2018-04-27T00:49:10.985Z,99524.93
2018-04-27T00:55:15.387Z,99525.58
2018-04-27T01:01:19.746Z,99522.84
2018-04-27T01:07:24.110Z,99522.26
2018-04-27T01:13:28.604Z,99506.88
2018-04-27T01:19:33.015Z,99505.70
2018-04-27T01:25:37.454Z,99506.19
2018-04-27T01:31:41.831Z,99514.67
2018-04-27T01:37:46.171Z,99513.58
2018-04-27T01:43:50.861Z,99517.02
2018-04-27T01:49:55.254Z,99518.14
2018-04-27T01:55:59.591Z,99521.82
2018-04-27T02:02:03.975Z,99523.22
2018-04-27T02:08:09.153Z,99529.61
2018-04-27T02:14:13.527Z,99522.37
2018-04-27T02:20:18.652Z,99520.52
2018-04-27T02:26:23.019Z,99520.83
2018-04-27T02:32:27.440Z,99515.78
2018-04-27T02:38:31.968Z,99509.01
2018-04-27T02:44:37.363Z,99505.59
2018-04-27T02:50:41.728Z,99495.44
2018-04-27T02:56:46.906Z,99494.73
2018-04-27T03:02:51.268Z,99490.28
2018-04-27T03:08:55.714Z,99491.22
2018-04-27T03:15:00.080Z,99491.97
2018-04-27T03:21:04.720Z,99477.88
2018-04-27T03:27:09.140Z,99470.73
2018-04-27T03:33:13.598Z,99475.97
2018-04-27T03:39:18.021Z,99477.23
2018-04-27T03:45:22.473Z,99462.56
2018-04-27T03:51:26.824Z,99466.95
2018-04-27T03:57:31.208Z,99466.88
2018-04-27T04:03:53.491Z,99457.25
2018-04-27T04:09:57.860Z,99461.19
2018-04-27T04:16:03.091Z,99467.37
2018-04-27T04:22:07.477Z,99459.77
2018-04-27T04:28:11.821Z,99464.11
2018-04-27T04:34:16.199Z,99458.28
2018-04-27T04:40:20.566Z,99455.22
2018-04-27T04:46:24.974Z,99448.59
2018-04-27T04:52:29.409Z,99452.59
2018-04-27T04:58:33.762Z,99459.73
2018-04-27T05:04:38.976Z,99461.41
2018-04-27T05:10:43.469Z,99469.50
2018-04-27T05:16:47.861Z,99470.33
2018-04-27T05:22:52.241Z,99465.15
2018-04-27T05:28:56.612Z,99454.20
2018-04-27T05:35:01.070Z,99454.98
2018-04-27T05:41:05.520Z,99447.78
2018-04-27T05:47:10.700Z,99453.69
2018-04-27T05:53:15.054Z,99449.91
2018-04-27T05:59:20.931Z,99436.78
2018-04-27T06:05:25.273Z,99437.44
2018-04-27T06:11:30.398Z,99433.30
2018-04-27T06:17:34.884Z,99428.25
2018-04-27T06:23:39.221Z,99434.80
2018-04-27T06:29:44.346Z,99438.63
2018-04-27T06:35:48.695Z,99428.23
2018-04-27T06:41:53.093Z,99430.17
2018-04-27T06:47:57.463Z,99411.78
2018-04-27T06:54:01.963Z,99407.04
2018-04-27T07:00:06.516Z,99403.48
2018-04-27T07:06:10.884Z,99393.89
2018-04-27T07:12:15.307Z,99391.83
2018-04-27T07:18:19.708Z,99387.52
2018-04-27T07:24:24.160Z,99386.02
2018-04-27T07:30:28.564Z,99384.34
2018-04-27T07:36:33.781Z,99371.67
2018-04-27T07:42:38.154Z,99369.50
2018-04-27T07:48:42.558Z,99366.70
2018-04-27T07:54:46.916Z,99362.60
2018-04-27T08:00:51.274Z,99347.00
2018-04-27T08:06:55.669Z,99340.81
2018-04-27T08:13:00.091Z,99345.48
2018-04-27T08:19:05.438Z,99337.62
2018-04-27T08:25:09.807Z,99339.75
2018-04-27T08:31:14.162Z,99331.80
2018-04-27T08:37:18.512Z,99329.66
2018-04-27T08:43:22.893Z,99324.63
2018-04-27T08:49:27.265Z,99327.34
2018-04-27T08:55:31.651Z,99325.33
2018-04-27T09:01:36.206Z,99311.00
2018-04-27T09:07:40.571Z,99304.55
2018-04-27T09:13:44.938Z,99300.02
2018-04-27T09:19:49.305Z,99301.65
2018-04-27T09:25:53.678Z,99293.38
2018-04-27T09:31:58.063Z,99284.57
2018-04-27T09:38:02.735Z,99284.88
2018-04-27T09:44:07.393Z,99270.45
2018-04-27T09:50:11.785Z,99265.83
2018-04-27T09:56:16.240Z,99259.38
2018-04-27T10:02:21.340Z,99253.46
2018-04-27T10:08:25.705Z,99242.77
2018-04-27T10:14:30.077Z,99226.03
2018-04-27T10:20:34.769Z,99219.20
2018-04-27T10:26:39.175Z,99202.31
2018-04-27T10:32:43.555Z,99196.94
2018-04-27T10:38:48.009Z,99184.86
2018-04-27T10:44:52.465Z,99162.53
2018-04-27T10:50:56.815Z,99158.07
2018-04-27T10:57:02.047Z,99142.39
2018-04-27T11:03:06.689Z,99141.94
2018-04-27T11:09:11.068Z,99138.52
2018-04-27T11:15:16.201Z,99132.93
2018-04-27T11:21:20.565Z,99129.75
2018-04-27T11:27:25.022Z,99116.50
2018-04-27T11:33:30.150Z,99116.33
2018-04-27T11:39:35.103Z,99106.97
2018-04-27T11:45:39.615Z,99089.38
2018-04-27T11:51:43.970Z,99093.55
2018-04-27T11:57:48.447Z,99074.73
2018-04-27T12:03:52.808Z,99077.41
2018-04-27T12:09:58.030Z,99056.09
2018-04-27T12:16:02.812Z,99056.05
2018-04-27T12:22:07.291Z,99043.33
2018-04-27T12:28:11.747Z,99048.62
2018-04-27T12:34:16.124Z,99045.91
2018-04-27T12:40:20.498Z,99044.14
2018-04-27T12:46:24.872Z,99038.05
2018-04-27T12:52:29.270Z,99039.07
2018-04-27T12:58:33.648Z,99031.31
2018-04-27T13:04:38.098Z,99010.53
2018-04-27T13:10:42.445Z,99004.52
2018-04-27T13:16:47.655Z,99011.77
2018-04-27T13:22:52.857Z,98993.41
2018-04-27T13:28:57.230Z,98984.64
2018-04-27T13:35:01.627Z,98985.66
2018-04-27T13:41:06.133Z,98971.66
2018-04-27T13:47:11.295Z,98953.31
2018-04-27T13:53:15.760Z,98954.23
2018-04-27T13:59:20.141Z,98937.84
2018-04-27T14:05:24.630Z,98911.61
2018-04-27T14:11:28.987Z,98909.69
2018-04-27T14:17:33.903Z,98901.07
2018-04-27T14:23:38.282Z,98879.30
2018-04-27T14:29:42.629Z,98878.53
2018-04-27T14:35:46.996Z,98865.54
2018-04-27T14:41:52.208Z,98848.72
2018-04-27T14:47:56.564Z,98840.55
2018-04-27T14:54:00.963Z,98832.66
2018-04-27T15:00:05.546Z,98834.45
2018-04-27T15:06:09.908Z,98832.19
2018-04-27T15:12:14.256Z,98814.43
2018-04-27T15:18:20.270Z,98817.95
2018-04-27T15:24:24.674Z,98797.52
2018-04-27T15:30:29.036Z,98789.82
2018-04-27T15:36:34.257Z,98783.79
2018-04-27T15:42:38.731Z,98774.35
2018-04-27T15:48:43.189Z,98778.88
2018-04-27T15:54:47.564Z,98782.31
2018-04-27T16:00:51.952Z,98778.72
2018-04-27T16:06:56.320Z,98766.23
2018-04-27T16:30:04.947Z,98732.08
2018-04-27T16:36:09.466Z,98727.31
2018-04-27T16:42:13.845Z,98726.08
2018-04-27T16:48:18.378Z,98722.47
2018-04-27T16:54:22.799Z,98726.84
2018-04-27T17:00:27.179Z,98722.66
2018-04-27T17:06:31.535Z,98719.00
2018-04-27T17:12:36.771Z,98723.95
2018-04-27T17:18:41.207Z,98718.98
2018-04-27T17:24:45.689Z,98724.98
2018-04-27T17:30:50.820Z,98711.50
2018-04-27T17:36:55.311Z,98710.11
2018-04-27T17:42:59.638Z,98709.48
2018-04-27T17:49:04.043Z,98718.28
2018-04-27T17:55:08.435Z,98707.91
2018-04-27T18:01:12.856Z,98714.03
2018-04-27T18:07:18.004Z,98717.89
2018-04-27T18:13:22.360Z,98730.25
2018-04-27T18:19:26.706Z,98728.86
2018-04-27T18:25:31.124Z,98754.65
2018-04-27T18:31:35.636Z,98763.44
2018-04-27T18:37:39.994Z,98759.63
2018-04-27T18:43:44.364Z,98752.08
2018-04-27T18:49:48.731Z,98745.14
2018-04-27T18:55:53.876Z,98729.08
2018-04-27T19:01:58.271Z,98725.97
2018-04-27T19:08:02.632Z,98738.68
2018-04-27T19:14:07.231Z,98762.70
2018-04-27T19:20:11.634Z,98762.00
2018-04-27T19:26:16.069Z,98757.23
2018-04-27T19:32:20.502Z,98746.75
2018-04-27T19:38:25.678Z,98738.41
2018-04-27T19:44:30.162Z,98747.97
2018-04-27T19:50:36.556Z,98741.13
2018-04-27T19:56:40.975Z,98742.00
2018-04-27T20:02:45.370Z,98742.78
2018-04-27T20:08:49.777Z,98742.50
2018-04-27T20:14:54.175Z,98746.05
2018-04-27T20:21:01.163Z,98743.50
2018-04-27T20:27:06.241Z,98740.53
2018-04-27T20:33:13.367Z,98742.39
2018-04-27T20:39:17.746Z,98737.33
2018-04-27T20:45:24.766Z,98743.52
2018-04-27T20:51:29.180Z,98742.42
2018-04-27T20:57:33.621Z,98721.22
2018-04-27T21:03:38.503Z,98725.81
2018-04-27T21:09:42.903Z,98718.84
2018-04-27T21:15:48.551Z,98714.91
2018-04-27T21:21:52.993Z,98704.87
2018-04-27T21:27:57.413Z,98703.95
2018-04-27T21:34:02.286Z,98696.89
2018-04-27T21:40:07.458Z,98696.94
2018-04-27T21:46:12.575Z,98694.75
2018-04-27T21:52:17.778Z,98692.38
2018-04-27T21:58:26.751Z,98690.55
2018-04-27T22:04:31.131Z,98690.55
2018-04-27T22:10:36.482Z,98683.30
2018-04-27T22:16:43.562Z,98687.48
2018-04-27T22:22:47.986Z,98701.13
2018-04-27T22:28:53.328Z,98696.53
2018-04-27T22:41:35.061Z,98695.75
2018-04-27T22:54:46.564Z,98691.72
2018-04-27T23:00:55.782Z,98689.05
2018-04-27T23:07:02.189Z,98693.89
2018-04-27T23:13:08.633Z,98689.84
2018-04-27T23:19:14.285Z,98681.36
2018-04-27T23:25:25.272Z,98686.80
2018-04-27T23:31:33.971Z,98679.58
2018-04-27T23:37:40.634Z,98676.00
2018-04-27T23:50:10.024Z,98674.14
2018-04-27T23:56:15.098Z,98674.53
